Au Sable Chasm, New York
Current Conditions -  °F | °C
As of 2:53 PM on Friday 28 Nov 2014 (Local Time) from KPBG Reporting Station
Overcast Overcast  
Wind Chill: 18°   Ceiling: 5000
Heat Index: 26°   Visibility: 10mi
Dew Point: 13°   Wind: 7mph
Humidity: 58%   Direction: NA
Pressure: 30.11"   Gusts: NA
Location:  44.5125°N, 73.5235°W
Report Text: KPBG 281953Z AUTO VRB06KT 10SM OVC050 M03/M11 A3011 RMK AO2 SLP201 T10331106
Loading
Personal Weather Stations






























Interactive Weather Map New forecast layout! Learn more

10-Day Weather Forecast

Advertisements
Track Severe Weather on mobile